This is the latest recevied weather packets stored in our database for station/object TG9ADI-20. If no packets are shown the sender has not sent any weather packets the latest 10 day(s).
| Time | Temp. | Humidity | Pressure | Rain* | Wind** | Luminosity | Snow |
|---|---|---|---|---|---|---|---|
| 1778015887 | 23.89° C | 10% | - | 0 mm | - | - | - |
| 1778015286 | 23.89° C | 85% | 1011 hPa | 0 mm | - | - | - |
| 1778014685 | 25° C | 84% | 1011 hPa | 0 mm | - | - | - |
| 1778014085 | 26.67° C | 75% | 1011 hPa | 0 mm | - | - | - |
| 1778013484 | 26.67° C | 75% | 1011 hPa | 0 mm | - | - | - |
| 1778012884 | 26.67° C | 75% | 1011 hPa | 0 mm | - | - | - |
| 1778012283 | 26.67° C | 75% | 1011 hPa | 0 mm | - | - | - |
| 1778011683 | 27.22° C | 50% | 1011 hPa | 0 mm | - | - | - |
| 1778011082 | 28.33° C | 45% | 1010 hPa | 0 mm | - | - | - |
| 1778010481 | 27.78° C | 45% | 1011 hPa | 0 mm | - | - | - |
| 1778009881 | 27.78° C | 45% | 1011 hPa | 0 mm | - | - | - |
| 1778009280 | 27.78° C | 45% | 1012 hPa | 0 mm | - | - | - |
| 1778008680 | 28.33° C | 45% | 1012 hPa | 0 mm | - | - | - |
| 1778008078 | 28.89° C | 45% | 1012 hPa | 0 mm | - | - | - |
| 1778007477 | 26.67° C | 10% | - | 0 mm | - | - | - |
| 1778006877 | 26.67° C | 10% | - | 0 mm | - | - | - |
| 1778006276 | 26.67° C | 10% | - | 0 mm | - | - | - |
| 1778005676 | 26.67° C | 99% | 1013 hPa | 0 mm | - | - | - |
| 1778005075 | 27.22° C | 98% | 1013 hPa | 0 mm | - | - | - |
| 1778004475 | 27.22° C | 93% | 1013 hPa | 0 mm | - | - | - |
| 1778003874 | 27.22° C | 75% | 1013 hPa | 0 mm | - | - | - |
| 1778003273 | 27.22° C | 75% | 1013 hPa | 0 mm | - | - | - |
| 1778002673 | 26.67° C | 75% | 1013 hPa | 0 mm | - | - | - |
| 1778002072 | 26.11° C | 69% | 1014 hPa | 0 mm | - | - | - |
| 1778001471 | 26.11° C | 69% | 1014 hPa | 0 mm | - | - | - |
* Rain latest hour (hover to see other rain measurements)
** Current wind speed in m/s (hover to see current wind gust speed)